sensor_id;sensor_type;location;lat;lon;timestamp;pressure;altitude;pressure_sealevel;temperature;humidity
69971;BME280;57301;50.328;8.542;2023-09-30T00:01:28;99301.31;;;15.58;89.40
69971;BME280;57301;50.328;8.542;2023-09-30T00:03:55;99305.34;;;15.54;89.65
69971;BME280;57301;50.328;8.542;2023-09-30T00:06:22;99309.75;;;15.63;89.83
69971;BME280;57301;50.328;8.542;2023-09-30T00:08:48;99315.59;;;15.58;90.46
69971;BME280;57301;50.328;8.542;2023-09-30T00:11:15;99329.03;;;15.58;90.18
69971;BME280;57301;50.328;8.542;2023-09-30T00:13:43;99332.28;;;15.62;90.13
69971;BME280;57301;50.328;8.542;2023-09-30T00:16:10;99332.53;;;15.51;90.45
69971;BME280;57301;50.328;8.542;2023-09-30T00:18:36;99341.09;;;15.46;90.78
69971;BME280;57301;50.328;8.542;2023-09-30T00:21:03;99345.63;;;15.46;90.06
69971;BME280;57301;50.328;8.542;2023-09-30T00:23:29;99345.16;;;15.50;90.29
69971;BME280;57301;50.328;8.542;2023-09-30T00:25:56;99345.50;;;15.47;90.19
69971;BME280;57301;50.328;8.542;2023-09-30T00:28:22;99340.41;;;15.36;90.85
69971;BME280;57301;50.328;8.542;2023-09-30T00:30:49;99338.22;;;15.31;91.10
69971;BME280;57301;50.328;8.542;2023-09-30T00:33:16;99339.88;;;15.32;91.15
69971;BME280;57301;50.328;8.542;2023-09-30T00:35:43;99351.47;;;15.25;91.17
69971;BME280;57301;50.328;8.542;2023-09-30T00:38:09;99356.00;;;15.24;91.17
69971;BME280;57301;50.328;8.542;2023-09-30T00:40:36;99363.38;;;15.22;91.50
69971;BME280;57301;50.328;8.542;2023-09-30T00:43:03;99360.38;;;15.33;90.00
69971;BME280;57301;50.328;8.542;2023-09-30T00:45:30;99363.53;;;15.21;90.27
69971;BME280;57301;50.328;8.542;2023-09-30T00:47:57;99357.47;;;15.11;91.54
69971;BME280;57301;50.328;8.542;2023-09-30T00:50:23;99352.09;;;15.11;90.48
69971;BME280;57301;50.328;8.542;2023-09-30T00:52:51;99364.31;;;15.05;90.64
69971;BME280;57301;50.328;8.542;2023-09-30T00:55:18;99361.47;;;15.07;90.64
69971;BME280;57301;50.328;8.542;2023-09-30T00:57:45;99366.81;;;14.98;90.32
69971;BME280;57301;50.328;8.542;2023-09-30T01:00:13;99371.09;;;14.91;91.07
69971;BME280;57301;50.328;8.542;2023-09-30T01:02:40;99364.69;;;14.84;91.96
69971;BME280;57301;50.328;8.542;2023-09-30T01:05:08;99364.22;;;14.89;91.59
69971;BME280;57301;50.328;8.542;2023-09-30T01:07:35;99364.69;;;14.84;91.55
69971;BME280;57301;50.328;8.542;2023-09-30T01:10:02;99375.31;;;14.86;91.34
69971;BME280;57301;50.328;8.542;2023-09-30T01:12:28;99383.81;;;14.81;91.27
69971;BME280;57301;50.328;8.542;2023-09-30T01:14:58;99397.25;;;14.81;91.66
69971;BME280;57301;50.328;8.542;2023-09-30T01:17:33;99402.50;;;14.91;90.99
69971;BME280;57301;50.328;8.542;2023-09-30T01:20:00;99403.47;;;14.82;91.45
69971;BME280;57301;50.328;8.542;2023-09-30T01:22:27;99399.09;;;14.81;91.43
69971;BME280;57301;50.328;8.542;2023-09-30T01:24:56;99399.56;;;14.76;91.56
69971;BME280;57301;50.328;8.542;2023-09-30T01:27:22;99404.88;;;14.68;91.04
69971;BME280;57301;50.328;8.542;2023-09-30T01:29:49;99408.72;;;14.65;91.28
69971;BME280;57301;50.328;8.542;2023-09-30T01:32:16;99398.22;;;14.54;91.32
69971;BME280;57301;50.328;8.542;2023-09-30T01:34:43;99393.88;;;14.53;91.55
69971;BME280;57301;50.328;8.542;2023-09-30T01:37:10;99396.72;;;14.34;91.71
69971;BME280;57301;50.328;8.542;2023-09-30T01:39:36;99407.22;;;14.27;91.74
69971;BME280;57301;50.328;8.542;2023-09-30T01:42:03;99410.13;;;14.16;92.20
69971;BME280;57301;50.328;8.542;2023-09-30T01:44:29;99403.88;;;14.07;92.35
69971;BME280;57301;50.328;8.542;2023-09-30T01:46:56;99395.88;;;14.15;92.07
69971;BME280;57301;50.328;8.542;2023-09-30T01:49:22;99385.53;;;14.20;91.59
69971;BME280;57301;50.328;8.542;2023-09-30T01:51:50;99385.31;;;14.14;92.04
69971;BME280;57301;50.328;8.542;2023-09-30T01:54:17;99389.22;;;14.19;90.79
69971;BME280;57301;50.328;8.542;2023-09-30T01:56:43;99391.38;;;13.98;91.87
69971;BME280;57301;50.328;8.542;2023-09-30T01:59:10;99391.38;;;13.98;92.09
69971;BME280;57301;50.328;8.542;2023-09-30T02:01:36;99385.00;;;13.99;91.61
69971;BME280;57301;50.328;8.542;2023-09-30T02:04:03;99388.22;;;14.03;91.34
69971;BME280;57301;50.328;8.542;2023-09-30T02:06:32;99390.47;;;14.07;91.34
69971;BME280;57301;50.328;8.542;2023-09-30T02:08:58;99403.16;;;14.05;91.57
69971;BME280;57301;50.328;8.542;2023-09-30T02:11:24;99405.00;;;14.05;90.89
69971;BME280;57301;50.328;8.542;2023-09-30T02:13:51;99403.94;;;13.97;90.69
69971;BME280;57301;50.328;8.542;2023-09-30T02:16:17;99401.84;;;13.91;90.97
69971;BME280;57301;50.328;8.542;2023-09-30T02:18:44;99409.00;;;14.01;90.78
69971;BME280;57301;50.328;8.542;2023-09-30T02:21:17;99412.69;;;14.00;91.23
69971;BME280;57301;50.328;8.542;2023-09-30T02:23:43;99423.09;;;14.03;90.90
69971;BME280;57301;50.328;8.542;2023-09-30T02:26:15;99425.09;;;14.01;90.66
69971;BME280;57301;50.328;8.542;2023-09-30T02:28:41;99427.53;;;13.94;91.05
69971;BME280;57301;50.328;8.542;2023-09-30T02:31:08;99411.53;;;14.02;91.63
69971;BME280;57301;50.328;8.542;2023-09-30T02:33:34;99409.22;;;14.07;91.28
69971;BME280;57301;50.328;8.542;2023-09-30T02:36:08;99408.00;;;14.02;91.79
69971;BME280;57301;50.328;8.542;2023-09-30T02:38:35;99404.16;;;14.04;90.79
69971;BME280;57301;50.328;8.542;2023-09-30T02:41:04;99397.56;;;13.98;91.00
69971;BME280;57301;50.328;8.542;2023-09-30T02:43:31;99395.03;;;13.97;91.12
69971;BME280;57301;50.328;8.542;2023-09-30T02:45:58;99405.53;;;13.90;91.11
69971;BME280;57301;50.328;8.542;2023-09-30T02:48:25;99407.78;;;13.95;91.31
69971;BME280;57301;50.328;8.542;2023-09-30T02:50:52;99423.03;;;13.94;91.75
69971;BME280;57301;50.328;8.542;2023-09-30T02:53:18;99434.03;;;13.91;91.66
69971;BME280;57301;50.328;8.542;2023-09-30T02:55:45;99432.91;;;13.94;91.67
69971;BME280;57301;50.328;8.542;2023-09-30T02:58:11;99434.28;;;13.98;91.90
69971;BME280;57301;50.328;8.542;2023-09-30T03:00:38;99427.63;;;14.02;91.20
69971;BME280;57301;50.328;8.542;2023-09-30T03:03:05;99417.56;;;14.04;90.51
69971;BME280;57301;50.328;8.542;2023-09-30T03:05:31;99412.13;;;13.96;90.53
69971;BME280;57301;50.328;8.542;2023-09-30T03:08:01;99408.38;;;13.89;90.87
69971;BME280;57301;50.328;8.542;2023-09-30T03:10:27;99414.03;;;13.86;91.42
69971;BME280;57301;50.328;8.542;2023-09-30T03:12:56;99418.03;;;13.82;91.17
69971;BME280;57301;50.328;8.542;2023-09-30T03:15:22;99426.34;;;13.61;91.86
69971;BME280;57301;50.328;8.542;2023-09-30T03:17:49;99423.56;;;13.53;92.09
69971;BME280;57301;50.328;8.542;2023-09-30T03:20:19;99406.44;;;13.36;92.48
69971;BME280;57301;50.328;8.542;2023-09-30T03:22:47;99401.75;;;13.10;93.36
69971;BME280;57301;50.328;8.542;2023-09-30T03:25:15;99399.41;;;12.98;93.45
69971;BME280;57301;50.328;8.542;2023-09-30T03:27:44;99402.91;;;13.08;93.25
69971;BME280;57301;50.328;8.542;2023-09-30T03:30:13;99403.53;;;13.19;94.26
69971;BME280;57301;50.328;8.542;2023-09-30T03:32:42;99422.59;;;13.26;93.95
69971;BME280;57301;50.328;8.542;2023-09-30T03:35:10;99433.84;;;13.20;93.69
69971;BME280;57301;50.328;8.542;2023-09-30T03:37:37;99438.97;;;13.04;93.75
69971;BME280;57301;50.328;8.542;2023-09-30T03:40:04;99442.44;;;12.77;93.65
69971;BME280;57301;50.328;8.542;2023-09-30T03:42:39;99440.19;;;12.62;94.27
69971;BME280;57301;50.328;8.542;2023-09-30T03:45:06;99443.59;;;12.64;94.39
69971;BME280;57301;50.328;8.542;2023-09-30T03:47:36;99446.56;;;12.52;94.80
69971;BME280;57301;50.328;8.542;2023-09-30T03:50:04;99449.50;;;12.78;93.70
69971;BME280;57301;50.328;8.542;2023-09-30T03:52:33;99454.94;;;12.86;94.09
69971;BME280;57301;50.328;8.542;2023-09-30T03:55:00;99450.59;;;12.85;94.77
69971;BME280;57301;50.328;8.542;2023-09-30T03:57:32;99453.28;;;12.85;94.89
69971;BME280;57301;50.328;8.542;2023-09-30T04:00:00;99453.00;;;12.69;94.92
69971;BME280;57301;50.328;8.542;2023-09-30T04:02:27;99450.22;;;12.51;95.21
69971;BME280;57301;50.328;8.542;2023-09-30T04:04:53;99440.09;;;12.45;95.21
69971;BME280;57301;50.328;8.542;2023-09-30T04:07:22;99427.28;;;12.48;95.14
69971;BME280;57301;50.328;8.542;2023-09-30T04:09:56;99432.78;;;12.37;95.78
69971;BME280;57301;50.328;8.542;2023-09-30T04:12:22;99445.84;;;12.59;94.33
69971;BME280;57301;50.328;8.542;2023-09-30T04:14:50;99453.16;;;12.57;94.76
69971;BME280;57301;50.328;8.542;2023-09-30T04:17:16;99456.25;;;12.72;95.50
69971;BME280;57301;50.328;8.542;2023-09-30T04:19:43;99454.94;;;12.86;94.92
69971;BME280;57301;50.328;8.542;2023-09-30T04:22:09;99456.22;;;12.82;94.54
69971;BME280;57301;50.328;8.542;2023-09-30T04:24:36;99459.03;;;12.90;93.84
69971;BME280;57301;50.328;8.542;2023-09-30T04:27:02;99454.88;;;12.49;94.88
69971;BME280;57301;50.328;8.542;2023-09-30T04:29:32;99459.53;;;12.18;94.96
69971;BME280;57301;50.328;8.542;2023-09-30T04:31:58;99473.47;;;12.12;94.72
69971;BME280;57301;50.328;8.542;2023-09-30T04:34:25;99476.97;;;12.12;94.76
69971;BME280;57301;50.328;8.542;2023-09-30T04:36:53;99476.56;;;11.97;96.01
69971;BME280;57301;50.328;8.542;2023-09-30T04:39:20;99488.19;;;11.96;95.66
69971;BME280;57301;50.328;8.542;2023-09-30T04:41:47;99483.16;;;12.13;94.74
69971;BME280;57301;50.328;8.542;2023-09-30T04:44:14;99478.22;;;12.08;95.45
69971;BME280;57301;50.328;8.542;2023-09-30T04:46:41;99489.38;;;12.03;95.57
69971;BME280;57301;50.328;8.542;2023-09-30T04:49:15;99484.16;;;12.12;94.95
69971;BME280;57301;50.328;8.542;2023-09-30T04:51:42;99477.50;;;11.96;95.33
69971;BME280;57301;50.328;8.542;2023-09-30T04:54:08;99476.53;;;12.07;95.42
69971;BME280;57301;50.328;8.542;2023-09-30T04:56:35;99472.31;;;12.14;96.18
69971;BME280;57301;50.328;8.542;2023-09-30T04:59:02;99466.69;;;12.27;96.09
69971;BME280;57301;50.328;8.542;2023-09-30T05:01:30;99458.38;;;12.40;95.19
69971;BME280;57301;50.328;8.542;2023-09-30T05:03:56;99464.63;;;12.40;95.67
69971;BME280;57301;50.328;8.542;2023-09-30T05:06:24;99458.97;;;12.24;95.07
69971;BME280;57301;50.328;8.542;2023-09-30T05:08:50;99454.44;;;12.15;94.24
69971;BME280;57301;50.328;8.542;2023-09-30T05:11:17;99460.53;;;12.17;93.69
69971;BME280;57301;50.328;8.542;2023-09-30T05:13:43;99459.94;;;12.13;93.34
69971;BME280;57301;50.328;8.542;2023-09-30T05:16:10;99469.00;;;11.72;94.45
69971;BME280;57301;50.328;8.542;2023-09-30T05:18:39;99475.31;;;11.71;95.41
69971;BME280;57301;50.328;8.542;2023-09-30T05:21:05;99479.91;;;11.59;95.79
69971;BME280;57301;50.328;8.542;2023-09-30T05:23:33;99480.81;;;11.69;96.01
69971;BME280;57301;50.328;8.542;2023-09-30T05:25:59;99482.94;;;11.75;96.31
69971;BME280;57301;50.328;8.542;2023-09-30T05:28:26;99478.59;;;11.84;95.95
69971;BME280;57301;50.328;8.542;2023-09-30T05:30:53;99492.63;;;11.76;95.84
69971;BME280;57301;50.328;8.542;2023-09-30T05:33:20;99487.34;;;11.46;94.89
69971;BME280;57301;50.328;8.542;2023-09-30T05:35:46;99496.19;;;11.16;94.95
69971;BME280;57301;50.328;8.542;2023-09-30T05:38:13;99505.09;;;11.26;93.98
69971;BME280;57301;50.328;8.542;2023-09-30T05:40:40;99500.38;;;11.39;93.37
69971;BME280;57301;50.328;8.542;2023-09-30T05:43:08;99496.31;;;11.45;93.67
69971;BME280;57301;50.328;8.542;2023-09-30T05:45:34;99513.44;;;11.33;94.02
69971;BME280;57301;50.328;8.542;2023-09-30T05:48:02;99522.88;;;11.37;93.99
69971;BME280;57301;50.328;8.542;2023-09-30T05:50:33;99510.28;;;11.18;93.88
69971;BME280;57301;50.328;8.542;2023-09-30T05:53:00;99515.44;;;10.89;94.40
69971;BME280;57301;50.328;8.542;2023-09-30T05:55:27;99515.44;;;10.89;94.05
69971;BME280;57301;50.328;8.542;2023-09-30T05:57:54;99516.94;;;11.33;93.25
69971;BME280;57301;50.328;8.542;2023-09-30T06:00:21;99501.94;;;11.72;91.99
69971;BME280;57301;50.328;8.542;2023-09-30T06:02:57;99498.50;;;12.40;88.73
69971;BME280;57301;50.328;8.542;2023-09-30T06:05:24;99511.75;;;12.70;88.06
69971;BME280;57301;50.328;8.542;2023-09-30T06:07:52;99511.47;;;12.83;87.70
69971;BME280;57301;50.328;8.542;2023-09-30T06:10:20;99516.78;;;13.49;85.37
69971;BME280;57301;50.328;8.542;2023-09-30T06:12:47;99516.69;;;14.06;83.18
69971;BME280;57301;50.328;8.542;2023-09-30T06:15:15;99518.50;;;14.23;83.66
69971;BME280;57301;50.328;8.542;2023-09-30T06:17:42;99523.25;;;14.57;82.12
69971;BME280;57301;50.328;8.542;2023-09-30T06:20:09;99523.91;;;14.76;82.02
69971;BME280;57301;50.328;8.542;2023-09-30T06:22:45;99534.88;;;14.47;80.55
69971;BME280;57301;50.328;8.542;2023-09-30T06:25:12;99540.41;;;13.36;82.25
69971;BME280;57301;50.328;8.542;2023-09-30T06:27:39;99537.22;;;13.03;84.38
69971;BME280;57301;50.328;8.542;2023-09-30T06:30:06;99537.13;;;13.52;84.28
69971;BME280;57301;50.328;8.542;2023-09-30T06:32:35;99532.31;;;13.83;83.99
69971;BME280;57301;50.328;8.542;2023-09-30T06:35:04;99533.41;;;13.90;82.89
69971;BME280;57301;50.328;8.542;2023-09-30T06:37:32;99539.22;;;13.85;82.36
69971;BME280;57301;50.328;8.542;2023-09-30T06:39:59;99542.72;;;13.58;83.04
69971;BME280;57301;50.328;8.542;2023-09-30T06:42:29;99543.31;;;13.80;81.92
69971;BME280;57301;50.328;8.542;2023-09-30T06:44:56;99536.25;;;14.34;80.54
69971;BME280;57301;50.328;8.542;2023-09-30T06:47:22;99551.19;;;15.08;77.23
69971;BME280;57301;50.328;8.542;2023-09-30T06:49:50;99548.31;;;14.83;78.88
69971;BME280;57301;50.328;8.542;2023-09-30T06:52:17;99556.47;;;15.43;79.45
69971;BME280;57301;50.328;8.542;2023-09-30T06:54:43;99562.84;;;15.16;77.48
69971;BME280;57301;50.328;8.542;2023-09-30T06:57:10;99547.78;;;15.23;76.40
69971;BME280;57301;50.328;8.542;2023-09-30T06:59:36;99556.75;;;14.70;77.94
69971;BME280;57301;50.328;8.542;2023-09-30T07:02:03;99549.72;;;15.13;76.79
69971;BME280;57301;50.328;8.542;2023-09-30T07:04:30;99551.94;;;15.70;74.41
69971;BME280;57301;50.328;8.542;2023-09-30T07:06:56;99546.72;;;15.68;75.17
69971;BME280;57301;50.328;8.542;2023-09-30T07:09:23;99543.97;;;16.53;74.64
69971;BME280;57301;50.328;8.542;2023-09-30T07:11:49;99551.97;;;16.20;75.57
69971;BME280;57301;50.328;8.542;2023-09-30T07:14:16;99545.00;;;16.60;74.66
69971;BME280;57301;50.328;8.542;2023-09-30T07:16:42;99553.56;;;16.39;74.74
69971;BME280;57301;50.328;8.542;2023-09-30T07:19:09;99547.50;;;16.53;74.12
69971;BME280;57301;50.328;8.542;2023-09-30T07:21:36;99547.03;;;15.99;75.26
69971;BME280;57301;50.328;8.542;2023-09-30T07:24:04;99557.69;;;16.25;75.44
69971;BME280;57301;50.328;8.542;2023-09-30T07:26:31;99562.34;;;18.11;67.78
69971;BME280;57301;50.328;8.542;2023-09-30T07:28:57;99568.09;;;19.30;60.77
69971;BME280;57301;50.328;8.542;2023-09-30T07:31:24;99557.50;;;19.06;62.33
69971;BME280;57301;50.328;8.542;2023-09-30T07:33:52;99563.34;;;19.32;62.64
69971;BME280;57301;50.328;8.542;2023-09-30T07:36:19;99552.41;;;20.08;58.42
69971;BME280;57301;50.328;8.542;2023-09-30T07:38:46;99540.44;;;20.02;59.20
69971;BME280;57301;50.328;8.542;2023-09-30T07:41:13;99545.56;;;20.12;58.54
69971;BME280;57301;50.328;8.542;2023-09-30T07:43:39;99544.56;;;20.92;55.52
69971;BME280;57301;50.328;8.542;2023-09-30T07:46:06;99538.31;;;20.49;56.15
69971;BME280;57301;50.328;8.542;2023-09-30T07:48:34;99543.00;;;21.04;56.25
69971;BME280;57301;50.328;8.542;2023-09-30T07:51:01;99548.00;;;21.50;53.89
69971;BME280;57301;50.328;8.542;2023-09-30T07:53:28;99540.59;;;21.37;52.80
69971;BME280;57301;50.328;8.542;2023-09-30T07:55:55;99550.69;;;22.19;52.99
69971;BME280;57301;50.328;8.542;2023-09-30T07:58:22;99542.34;;;23.42;49.22
69971;BME280;57301;50.328;8.542;2023-09-30T08:00:49;99538.94;;;22.73;50.47
69971;BME280;57301;50.328;8.542;2023-09-30T08:03:15;99523.34;;;24.06;47.78
69971;BME280;57301;50.328;8.542;2023-09-30T08:05:43;99534.78;;;22.10;51.75
69971;BME280;57301;50.328;8.542;2023-09-30T08:08:09;99555.16;;;21.08;55.88
69971;BME280;57301;50.328;8.542;2023-09-30T08:10:36;99566.13;;;21.22;55.17
69971;BME280;57301;50.328;8.542;2023-09-30T08:13:03;99557.28;;;21.13;56.60
69971;BME280;57301;50.328;8.542;2023-09-30T08:15:30;99554.91;;;21.53;54.47
69971;BME280;57301;50.328;8.542;2023-09-30T08:17:57;99569.44;;;22.56;53.25
69971;BME280;57301;50.328;8.542;2023-09-30T08:20:24;99557.47;;;22.02;53.29
69971;BME280;57301;50.328;8.542;2023-09-30T08:22:50;99555.28;;;22.12;54.89
69971;BME280;57301;50.328;8.542;2023-09-30T08:25:17;99559.16;;;22.03;52.95
69971;BME280;57301;50.328;8.542;2023-09-30T08:27:44;99559.00;;;21.42;55.14
69971;BME280;57301;50.328;8.542;2023-09-30T08:30:15;99566.28;;;21.69;55.27
69971;BME280;57301;50.328;8.542;2023-09-30T08:32:42;99564.06;;;22.21;52.76
69971;BME280;57301;50.328;8.542;2023-09-30T08:35:09;99563.69;;;23.38;49.69
69971;BME280;57301;50.328;8.542;2023-09-30T08:37:36;99570.28;;;24.15;47.01
69971;BME280;57301;50.328;8.542;2023-09-30T08:40:03;99577.03;;;22.80;49.48
69971;BME280;57301;50.328;8.542;2023-09-30T08:42:32;99572.28;;;22.34;49.31
69971;BME280;57301;50.328;8.542;2023-09-30T08:45:02;99579.31;;;22.76;49.75
69971;BME280;57301;50.328;8.542;2023-09-30T08:47:30;99567.47;;;23.04;47.41
69971;BME280;57301;50.328;8.542;2023-09-30T08:49:59;99568.19;;;21.69;48.83
69971;BME280;57301;50.328;8.542;2023-09-30T08:52:33;99568.50;;;21.59;47.31
69971;BME280;57301;50.328;8.542;2023-09-30T08:55:06;99565.72;;;21.46;47.64
69971;BME280;57301;50.328;8.542;2023-09-30T08:57:40;99564.94;;;21.87;48.37
69971;BME280;57301;50.328;8.542;2023-09-30T09:00:08;99583.63;;;22.51;48.87
69971;BME280;57301;50.328;8.542;2023-09-30T09:02:39;99581.91;;;22.30;47.75
69971;BME280;57301;50.328;8.542;2023-09-30T09:05:06;99587.28;;;22.85;46.82
69971;BME280;57301;50.328;8.542;2023-09-30T09:07:34;99592.59;;;23.13;46.21
69971;BME280;57301;50.328;8.542;2023-09-30T09:12:33;99590.91;;;23.31;44.77
69971;BME280;57301;50.328;8.542;2023-09-30T09:15:01;99592.97;;;24.02;42.96
69971;BME280;57301;50.328;8.542;2023-09-30T09:17:42;99599.94;;;23.45;43.13
69971;BME280;57301;50.328;8.542;2023-09-30T09:20:10;99603.06;;;23.16;45.83
69971;BME280;57301;50.328;8.542;2023-09-30T09:22:44;99601.16;;;23.56;43.45
69971;BME280;57301;50.328;8.542;2023-09-30T09:25:10;99605.16;;;23.40;44.38
69971;BME280;57301;50.328;8.542;2023-09-30T09:27:37;99606.00;;;23.27;43.73
69971;BME280;57301;50.328;8.542;2023-09-30T09:33:01;99615.63;;;23.03;44.61
69971;BME280;57301;50.328;8.542;2023-09-30T09:35:29;99604.13;;;23.68;43.60
69971;BME280;57301;50.328;8.542;2023-09-30T09:37:58;99603.22;;;24.07;43.19
69971;BME280;57301;50.328;8.542;2023-09-30T09:40:28;99609.69;;;24.71;42.24
69971;BME280;57301;50.328;8.542;2023-09-30T09:42:55;99610.22;;;24.48;40.10
69971;BME280;57301;50.328;8.542;2023-09-30T09:45:24;99607.03;;;25.27;40.98
69971;BME280;57301;50.328;8.542;2023-09-30T09:47:51;99604.81;;;25.67;39.92
69971;BME280;57301;50.328;8.542;2023-09-30T09:50:22;99607.66;;;26.22;39.42
69971;BME280;57301;50.328;8.542;2023-09-30T09:52:50;99599.50;;;25.79;39.27
69971;BME280;57301;50.328;8.542;2023-09-30T09:55:23;99594.88;;;26.35;39.43
69971;BME280;57301;50.328;8.542;2023-09-30T09:57:50;99580.69;;;26.74;38.73
69971;BME280;57301;50.328;8.542;2023-09-30T10:00:26;99574.59;;;26.42;39.44
69971;BME280;57301;50.328;8.542;2023-09-30T10:02:53;99561.56;;;26.38;40.22
69971;BME280;57301;50.328;8.542;2023-09-30T10:05:21;99551.00;;;26.60;39.02
69971;BME280;57301;50.328;8.542;2023-09-30T10:08:03;99556.28;;;24.88;41.86
69971;BME280;57301;50.328;8.542;2023-09-30T10:10:35;99555.22;;;26.25;40.83
69971;BME280;57301;50.328;8.542;2023-09-30T10:13:03;99552.97;;;26.04;40.77
69971;BME280;57301;50.328;8.542;2023-09-30T10:18:04;99544.44;;;26.12;40.88
69971;BME280;57301;50.328;8.542;2023-09-30T10:20:40;99531.72;;;25.63;41.78
69971;BME280;57301;50.328;8.542;2023-09-30T10:25:45;99541.09;;;25.74;41.07
69971;BME280;57301;50.328;8.542;2023-09-30T10:28:38;99550.38;;;26.28;40.01
69971;BME280;57301;50.328;8.542;2023-09-30T10:38:55;99557.81;;;23.61;44.54
69971;BME280;57301;50.328;8.542;2023-09-30T10:46:57;99554.97;;;24.65;44.25
69971;BME280;57301;50.328;8.542;2023-09-30T10:51:57;99551.34;;;23.49;43.71
69971;BME280;57301;50.328;8.542;2023-09-30T10:54:31;99551.38;;;23.02;45.22
69971;BME280;57301;50.328;8.542;2023-09-30T10:56:59;99548.97;;;23.85;44.45
69971;BME280;57301;50.328;8.542;2023-09-30T10:59:30;99549.22;;;23.84;44.39
69971;BME280;57301;50.328;8.542;2023-09-30T11:01:56;99552.72;;;23.98;42.81
69971;BME280;57301;50.328;8.542;2023-09-30T11:04:24;99547.75;;;23.68;43.45
69971;BME280;57301;50.328;8.542;2023-09-30T11:06:51;99551.97;;;23.38;43.75
69971;BME280;57301;50.328;8.542;2023-09-30T11:09:22;99550.81;;;24.56;41.12
69971;BME280;57301;50.328;8.542;2023-09-30T11:11:51;99566.94;;;24.64;41.32
69971;BME280;57301;50.328;8.542;2023-09-30T11:14:23;99555.53;;;25.56;38.20
69971;BME280;57301;50.328;8.542;2023-09-30T11:16:57;99572.66;;;24.88;40.29
69971;BME280;57301;50.328;8.542;2023-09-30T11:19:23;99568.81;;;24.96;41.31
69971;BME280;57301;50.328;8.542;2023-09-30T11:21:54;99561.56;;;24.83;40.17
69971;BME280;57301;50.328;8.542;2023-09-30T11:24:23;99555.97;;;25.03;39.96
69971;BME280;57301;50.328;8.542;2023-09-30T11:26:53;99546.84;;;25.15;39.48
69971;BME280;57301;50.328;8.542;2023-09-30T11:29:20;99538.97;;;25.07;38.97
69971;BME280;57301;50.328;8.542;2023-09-30T11:31:48;99537.44;;;26.35;37.82
69971;BME280;57301;50.328;8.542;2023-09-30T11:34:15;99541.34;;;25.22;39.04
69971;BME280;57301;50.328;8.542;2023-09-30T11:36:52;99541.94;;;25.74;37.59
69971;BME280;57301;50.328;8.542;2023-09-30T11:39:22;99558.53;;;25.72;38.44
69971;BME280;57301;50.328;8.542;2023-09-30T11:41:50;99556.97;;;26.20;35.49
69971;BME280;57301;50.328;8.542;2023-09-30T11:44:17;99544.72;;;26.59;36.40
69971;BME280;57301;50.328;8.542;2023-09-30T11:51:51;99546.66;;;26.40;36.31
69971;BME280;57301;50.328;8.542;2023-09-30T11:54:18;99547.38;;;27.31;32.33
69971;BME280;57301;50.328;8.542;2023-09-30T11:56:44;99535.28;;;27.50;32.96
69971;BME280;57301;50.328;8.542;2023-09-30T11:59:11;99541.09;;;27.66;31.09
69971;BME280;57301;50.328;8.542;2023-09-30T12:01:37;99529.19;;;29.26;30.15
69971;BME280;57301;50.328;8.542;2023-09-30T12:04:04;99530.59;;;28.95;30.99
69971;BME280;57301;50.328;8.542;2023-09-30T12:06:31;99520.47;;;29.29;30.06
69971;BME280;57301;50.328;8.542;2023-09-30T12:08:57;99525.53;;;29.37;31.91
69971;BME280;57301;50.328;8.542;2023-09-30T12:11:24;99522.50;;;29.73;31.44
69971;BME280;57301;50.328;8.542;2023-09-30T12:13:51;99516.59;;;28.80;32.24
69971;BME280;57301;50.328;8.542;2023-09-30T12:16:17;99512.78;;;29.48;31.81
69971;BME280;57301;50.328;8.542;2023-09-30T12:18:45;99509.47;;;29.12;30.22
69971;BME280;57301;50.328;8.542;2023-09-30T12:21:12;99503.81;;;29.53;30.34
69971;BME280;57301;50.328;8.542;2023-09-30T12:23:40;99509.78;;;29.33;31.30
69971;BME280;57301;50.328;8.542;2023-09-30T12:26:07;99502.47;;;30.43;30.09
69971;BME280;57301;50.328;8.542;2023-09-30T12:28:40;99508.59;;;29.62;30.47
69971;BME280;57301;50.328;8.542;2023-09-30T12:31:07;99504.34;;;29.72;29.73
69971;BME280;57301;50.328;8.542;2023-09-30T12:33:34;99499.56;;;30.28;28.05
69971;BME280;57301;50.328;8.542;2023-09-30T12:36:01;99509.13;;;29.09;29.70
69971;BME280;57301;50.328;8.542;2023-09-30T12:38:27;99510.59;;;29.50;29.47
69971;BME280;57301;50.328;8.542;2023-09-30T12:40:55;99512.00;;;28.40;31.81
69971;BME280;57301;50.328;8.542;2023-09-30T12:43:22;99502.88;;;29.13;31.11
69971;BME280;57301;50.328;8.542;2023-09-30T12:45:48;99501.06;;;29.75;30.12
69971;BME280;57301;50.328;8.542;2023-09-30T12:48:15;99500.06;;;29.08;30.89
69971;BME280;57301;50.328;8.542;2023-09-30T12:50:44;99499.66;;;29.16;30.65
69971;BME280;57301;50.328;8.542;2023-09-30T12:53:11;99497.16;;;29.70;31.22
69971;BME280;57301;50.328;8.542;2023-09-30T12:55:37;99501.28;;;29.90;28.09
69971;BME280;57301;50.328;8.542;2023-09-30T12:58:03;99508.13;;;29.65;28.87
69971;BME280;57301;50.328;8.542;2023-09-30T13:00:31;99505.94;;;29.34;29.71
69971;BME280;57301;50.328;8.542;2023-09-30T13:03:00;99507.97;;;29.55;28.78
69971;BME280;57301;50.328;8.542;2023-09-30T13:05:29;99510.56;;;29.11;30.02
69971;BME280;57301;50.328;8.542;2023-09-30T13:07:56;99511.03;;;28.91;30.09
69971;BME280;57301;50.328;8.542;2023-09-30T13:10:23;99511.66;;;27.73;30.93
69971;BME280;57301;50.328;8.542;2023-09-30T13:12:50;99507.75;;;27.57;29.96
69971;BME280;57301;50.328;8.542;2023-09-30T13:15:17;99503.38;;;28.08;29.23
69971;BME280;57301;50.328;8.542;2023-09-30T13:17:44;99494.88;;;27.34;29.70
69971;BME280;57301;50.328;8.542;2023-09-30T13:20:11;99495.94;;;27.10;30.61
69971;BME280;57301;50.328;8.542;2023-09-30T13:22:38;99476.22;;;28.35;30.31
69971;BME280;57301;50.328;8.542;2023-09-30T13:25:05;99469.13;;;28.84;28.13
69971;BME280;57301;50.328;8.542;2023-09-30T13:27:32;99453.13;;;28.19;29.07
69971;BME280;57301;50.328;8.542;2023-09-30T13:29:59;99450.59;;;28.91;30.39
69971;BME280;57301;50.328;8.542;2023-09-30T13:32:25;99453.94;;;28.31;28.70
69971;BME280;57301;50.328;8.542;2023-09-30T13:34:52;99449.75;;;28.91;28.28